Wetterdaten: Woche 11.09.17 - 17.09.17 (KW37)
Datum Zeit Temp. A. Feuchte A. Luftdruck Regen Wind Richtung Taupunkt Windchill Windben
11.09.2017 00:00 15,3 C 81 % 1006,3 hPa 0,5 l/m 1,8 km/h N 12,1 C 15,3 C 8,1 km/h
11.09.2017 01:00 14,9 C 82 % 1006,3 hPa 0,0 l/m 0,8 km/h N 11,8 C 14,9 C 4,4 km/h
11.09.2017 02:00 14,5 C 82 % 1006,0 hPa 0,0 l/m 0,0 km/h N 11,5 C 14,5 C 2,0 km/h
11.09.2017 03:00 14,3 C 82 % 1005,5 hPa 0,0 l/m 0,0 km/h N 11,2 C 14,3 C 0,8 km/h
11.09.2017 04:00 13,9 C 82 % 1004,9 hPa 0,0 l/m 0,0 km/h N 10,9 C 13,9 C 0,0 km/h
11.09.2017 05:00 13,5 C 82 % 1004,6 hPa 0,0 l/m 0,0 km/h N 10,5 C 13,5 C 0,0 km/h
11.09.2017 06:00 13,5 C 82 % 1004,1 hPa 0,0 l/m 0,0 km/h N 10,5 C 13,5 C 0,0 km/h
11.09.2017 07:00 13,4 C 83 % 1004,0 hPa 0,0 l/m 0,0 km/h N 10,5 C 13,4 C 0,4 km/h
11.09.2017 08:00 14,4 C 83 % 1003,9 hPa 0,0 l/m 0,1 km/h N 11,6 C 14,4 C 2,0 km/h
11.09.2017 09:00 15,5 C 82 % 1003,5 hPa 0,0 l/m 0,7 km/h N 12,5 C 15,5 C 6,0 km/h
11.09.2017 10:00 17,2 C 80 % 1003,9 hPa 0,0 l/m 0,7 km/h N 13,7 C 17,2 C 6,0 km/h
11.09.2017 11:00 17,8 C 77 % 1003,7 hPa 0,0 l/m 1,0 km/h N 13,8 C 17,8 C 8,1 km/h
11.09.2017 12:00 18,1 C 77 % 1003,0 hPa 0,0 l/m 0,5 km/h N 14,0 C 18,1 C 4,8 km/h
11.09.2017 13:00 17,6 C 79 % 1003,5 hPa 0,5 l/m 1,6 km/h N 13,9 C 17,6 C 8,4 km/h
11.09.2017 14:00 17,0 C 81 % 1003,2 hPa 0,0 l/m 0,6 km/h N 13,8 C 17,0 C 5,6 km/h
11.09.2017 15:00 16,8 C 82 % 1002,7 hPa 0,0 l/m 0,7 km/h N 13,7 C 16,8 C 6,4 km/h
11.09.2017 16:00 16,6 C 82 % 1002,3 hPa 0,3 l/m 1,3 km/h N 13,5 C 16,6 C 7,2 km/h
11.09.2017 17:00 16,3 C 82 % 1002,6 hPa 0,0 l/m 1,1 km/h N 13,2 C 16,3 C 8,0 km/h
11.09.2017 18:00 15,8 C 82 % 1002,5 hPa 0,0 l/m 1,5 km/h N 12,6 C 15,8 C 11,7 km/h
11.09.2017 19:00 15,7 C 79 % 1002,9 hPa 0,0 l/m 3,0 km/h N 11,9 C 15,7 C 14,9 km/h
11.09.2017 20:00 15,0 C 80 % 1004,1 hPa 0,8 l/m 1,0 km/h N 11,5 C 15,0 C 10,4 km/h
11.09.2017 21:00 14,1 C 81 % 1004,6 hPa 0,5 l/m 2,0 km/h N 10,9 C 14,1 C 9,3 km/h
11.09.2017 22:00 13,8 C 82 % 1004,8 hPa 0,0 l/m 0,8 km/h N 10,8 C 13,8 C 7,7 km/h
11.09.2017 23:00 14,1 C 81 % 1005,1 hPa 0,0 l/m 1,5 km/h N 10,9 C 14,1 C 8,4 km/h
12.09.2017 00:00 14,1 C 82 % 1004,9 hPa 0,3 l/m 3,0 km/h N 11,0 C 14,1 C 12,8 km/h
12.09.2017 01:00 15,2 C 78 % 1005,0 hPa 0,0 l/m 10,6 km/h N 11,4 C 13,1 C 26,5 km/h
12.09.2017 02:00 15,1 C 79 % 1005,2 hPa 0,0 l/m 13,9 km/h N 11,4 C 11,7 C 33,0 km/h
12.09.2017 03:00 15,1 C 77 % 1005,1 hPa 0,0 l/m 9,6 km/h N 11,0 C 13,5 C 22,9 km/h
12.09.2017 04:00 15,3 C 74 % 1005,0 hPa 0,0 l/m 9,4 km/h N 10,7 C 13,8 C 26,5 km/h
12.09.2017 05:00 15,2 C 73 % 1005,1 hPa 0,0 l/m 7,8 km/h N 10,4 C 14,4 C 22,5 km/h
12.09.2017 06:00 15,3 C 72 % 1005,3 hPa 0,0 l/m 7,8 km/h N 10,3 C 14,5 C 25,3 km/h
12.09.2017 07:00 15,3 C 72 % 1005,4 hPa 0,0 l/m 9,2 km/h N 10,3 C 13,9 C 24,5 km/h
12.09.2017 08:00 15,4 C 72 % 1005,7 hPa 0,0 l/m 6,9 km/h N 10,3 C 15,0 C 23,3 km/h
12.09.2017 09:00 16,3 C 69 % 1006,2 hPa 0,0 l/m 9,0 km/h N 10,5 C 15,0 C 22,1 km/h
12.09.2017 10:00 16,5 C 69 % 1006,8 hPa 0,0 l/m 9,3 km/h N 10,7 C 15,1 C 24,9 km/h
12.09.2017 11:00 16,3 C 68 % 1007,5 hPa 0,0 l/m 7,0 km/h N 10,4 C 15,8 C 20,5 km/h
12.09.2017 12:00 16,3 C 65 % 1007,9 hPa 0,0 l/m 8,2 km/h N 9,7 C 15,4 C 24,9 km/h
12.09.2017 13:00 15,1 C 73 % 1008,5 hPa 0,3 l/m 6,7 km/h N 10,2 C 14,4 C 21,7 km/h
12.09.2017 14:00 14,3 C 77 % 1009,4 hPa 0,5 l/m 3,1 km/h N 10,3 C 14,3 C 18,5 km/h
12.09.2017 15:00 14,2 C 78 % 1009,6 hPa 0,0 l/m 4,8 km/h N 10,3 C 14,0 C 19,3 km/h
12.09.2017 16:00 14,8 C 76 % 1010,0 hPa 0,0 l/m 1,5 km/h N 10,7 C 14,8 C 10,4 km/h
12.09.2017 17:00 15,1 C 75 % 1009,9 hPa 0,0 l/m 5,2 km/h N 10,7 C 15,1 C 16,1 km/h
12.09.2017 18:00 14,9 C 71 % 1009,9 hPa 0,0 l/m 5,9 km/h N 9,7 C 14,8 C 18,9 km/h
12.09.2017 19:00 14,4 C 71 % 1010,4 hPa 0,0 l/m 10,3 km/h N 9,3 C 12,3 C 27,8 km/h
12.09.2017 20:00 14,0 C 70 % 1011,4 hPa 0,0 l/m 7,2 km/h N 8,7 C 13,4 C 21,3 km/h
12.09.2017 21:00 14,4 C 67 % 1012,0 hPa 0,0 l/m 7,8 km/h N 8,3 C 13,5 C 25,3 km/h
12.09.2017 22:00 14,7 C 66 % 1012,4 hPa 0,0 l/m 10,2 km/h N 8,5 C 12,7 C 28,6 km/h
12.09.2017 23:00 14,8 C 67 % 1013,0 hPa 0,0 l/m 10,9 km/h N 8,7 C 12,5 C 27,0 km/h
13.09.2017 00:00 14,6 C 68 % 1013,8 hPa 0,0 l/m 9,0 km/h N 8,8 C 13,2 C 26,9 km/h
13.09.2017 01:00 14,4 C 68 % 1014,2 hPa 0,3 l/m 10,6 km/h N 8,6 C 12,3 C 31,8 km/h
13.09.2017 02:00 14,3 C 69 % 1014,7 hPa 0,0 l/m 4,3 km/h N 8,5 C 14,3 C 17,3 km/h
13.09.2017 03:00 13,9 C 69 % 1014,8 hPa 0,0 l/m 6,3 km/h N 8,3 C 13,3 C 24,1 km/h
13.09.2017 04:00 13,5 C 70 % 1014,9 hPa 0,0 l/m 2,0 km/h N 8,2 C 13,5 C 14,5 km/h
13.09.2017 05:00 13,8 C 69 % 1015,0 hPa 0,0 l/m 3,5 km/h N 8,1 C 13,8 C 16,5 km/h
13.09.2017 06:00 13,3 C 68 % 1015,1 hPa 0,0 l/m 0,2 km/h N 7,6 C 13,3 C 1,6 km/h
13.09.2017 07:00 11,3 C 75 % 1015,2 hPa 0,0 l/m 0,0 km/h N 7,0 C 11,3 C 0,0 km/h
13.09.2017 08:00 12,3 C 77 % 1015,0 hPa 0,0 l/m 0,2 km/h N 8,4 C 12,3 C 3,6 km/h
13.09.2017 09:00 16,0 C 65 % 1014,8 hPa 0,0 l/m 0,9 km/h N 9,3 C 16,0 C 6,4 km/h
13.09.2017 10:00 19,9 C 50 % 1014,5 hPa 0,0 l/m 1,8 km/h N 9,1 C 19,9 C 10,5 km/h
13.09.2017 11:00 21,7 C 44 % 1013,5 hPa 0,0 l/m 3,7 km/h N 8,9 C 21,7 C 12,9 km/h
13.09.2017 12:00 22,5 C 41 % 1012,4 hPa 0,0 l/m 3,8 km/h N 8,4 C 22,5 C 15,7 km/h
13.09.2017 13:00 22,9 C 39 % 1011,4 hPa 0,0 l/m 2,9 km/h N 8,3 C 22,9 C 13,7 km/h
13.09.2017 14:00 23,4 C 39 % 1010,5 hPa 0,0 l/m 3,8 km/h N 8,4 C 23,4 C 16,1 km/h
13.09.2017 15:00 23,3 C 42 % 1010,3 hPa 0,0 l/m 3,4 km/h N 9,6 C 23,3 C 12,9 km/h
13.09.2017 16:00 22,4 C 46 % 1010,5 hPa 0,0 l/m 2,3 km/h N 10,0 C 22,4 C 12,5 km/h
13.09.2017 17:00 21,4 C 48 % 1010,8 hPa 0,0 l/m 0,8 km/h N 10,0 C 21,4 C 9,7 km/h
13.09.2017 18:00 20,5 C 50 % 1011,4 hPa 0,0 l/m 0,1 km/h N 9,8 C 20,5 C 2,4 km/h
13.09.2017 19:00 19,7 C 53 % 1011,3 hPa 0,0 l/m 0,5 km/h N 9,8 C 19,7 C 4,8 km/h
13.09.2017 20:00 18,7 C 56 % 1011,3 hPa 0,0 l/m 0,1 km/h N 9,8 C 18,7 C 2,8 km/h
13.09.2017 21:00 17,8 C 60 % 1010,8 hPa 0,0 l/m 0,2 km/h N 9,8 C 17,8 C 3,2 km/h
13.09.2017 22:00 17,2 C 63 % 1010,6 hPa 0,0 l/m 0,2 km/h N 10,2 C 17,2 C 4,0 km/h
13.09.2017 23:00 16,5 C 68 % 1010,1 hPa 0,0 l/m 0,1 km/h N 10,5 C 16,5 C 1,6 km/h
14.09.2017 00:00 16,4 C 66 % 1009,8 hPa 0,0 l/m 0,2 km/h N 9,9 C 16,4 C 2,8 km/h
14.09.2017 01:00 15,9 C 68 % 1009,5 hPa 0,0 l/m 0,3 km/h N 9,9 C 15,9 C 3,2 km/h
14.09.2017 02:00 14,0 C 73 % 1009,1 hPa 0,0 l/m 0,3 km/h N 9,3 C 14,0 C 2,8 km/h
14.09.2017 03:00 12,5 C 77 % 1008,7 hPa 0,0 l/m 0,0 km/h N 8,5 C 12,5 C 1,2 km/h
14.09.2017 04:00 11,5 C 81 % 1008,2 hPa 0,0 l/m 0,1 km/h N 8,2 C 11,5 C 1,2 km/h
14.09.2017 05:00 10,8 C 82 % 1007,5 hPa 0,0 l/m 0,1 km/h N 7,8 C 10,8 C 2,4 km/h
14.09.2017 06:00 11,5 C 82 % 1007,1 hPa 0,0 l/m 0,2 km/h N 8,5 C 11,5 C 3,2 km/h
14.09.2017 07:00 12,4 C 82 % 1006,7 hPa 0,0 l/m 0,2 km/h N 9,4 C 12,4 C 3,6 km/h
14.09.2017 08:00 13,4 C 81 % 1006,0 hPa 0,0 l/m 0,3 km/h N 10,2 C 13,4 C 3,6 km/h
14.09.2017 09:00 15,5 C 78 % 1005,6 hPa 0,0 l/m 0,4 km/h N 11,7 C 15,5 C 4,4 km/h
14.09.2017 10:00 19,5 C 66 % 1005,3 hPa 0,0 l/m 0,2 km/h N 13,1 C 19,5 C 5,2 km/h
14.09.2017 11:00 21,1 C 61 % 1004,9 hPa 0,0 l/m 0,5 km/h N 13,1 C 21,1 C 6,4 km/h
14.09.2017 12:00 23,2 C 54 % 1003,9 hPa 0,0 l/m 0,4 km/h N 13,3 C 23,2 C 5,6 km/h
14.09.2017 13:00 24,7 C 51 % 1002,9 hPa 0,0 l/m 0,3 km/h N 13,8 C 24,7 C 5,2 km/h
14.09.2017 14:00 24,3 C 50 % 1002,0 hPa 0,0 l/m 1,1 km/h N 13,1 C 24,3 C 8,0 km/h
14.09.2017 15:00 25,0 C 48 % 1002,3 hPa 0,0 l/m 2,1 km/h N 13,1 C 25,0 C 12,9 km/h
14.09.2017 16:00 23,1 C 50 % 1004,6 hPa 0,0 l/m 14,0 km/h N 12,2 C 21,1 C 40,3 km/h
14.09.2017 17:00 17,6 C 54 % 1007,6 hPa 0,0 l/m 17,1 km/h N 8,2 C 13,9 C 51,9 km/h
14.09.2017 18:00 14,9 C 58 % 1008,7 hPa 0,0 l/m 19,9 km/h N 6,7 C 9,7 C 53,1 km/h
14.09.2017 19:00 14,1 C 62 % 1009,6 hPa 0,3 l/m 21,5 km/h N 6,8 C 8,2 C 52,3 km/h
14.09.2017 20:00 14,1 C 60 % 1010,5 hPa 0,0 l/m 18,4 km/h N 6,4 C 9,0 C 48,7 km/h
14.09.2017 21:00 14,2 C 57 % 1010,8 hPa 0,0 l/m 18,7 km/h N 5,8 C 9,1 C 53,9 km/h
14.09.2017 22:00 13,9 C 57 % 1011,3 hPa 0,0 l/m 14,9 km/h N 5,6 C 10,0 C 45,5 km/h
14.09.2017 23:00 14,0 C 58 % 1011,9 hPa 0,0 l/m 13,2 km/h N 5,8 C 10,7 C 38,6 km/h
15.09.2017 00:00 14,4 C 57 % 1012,4 hPa 0,0 l/m 12,6 km/h N 6,0 C 11,4 C 37,4 km/h
15.09.2017 01:00 14,3 C 57 % 1012,8 hPa 0,0 l/m 12,6 km/h N 5,8 C 11,3 C 36,6 km/h
15.09.2017 02:00 13,9 C 57 % 1013,5 hPa 0,0 l/m 10,6 km/h N 5,5 C 11,7 C 31,0 km/h
15.09.2017 03:00 13,3 C 59 % 1013,5 hPa 0,0 l/m 6,6 km/h N 5,4 C 12,9 C 25,3 km/h
15.09.2017 04:00 13,2 C 59 % 1013,8 hPa 0,0 l/m 11,1 km/h N 5,3 C 10,7 C 34,6 km/h
15.09.2017 05:00 13,0 C 60 % 1014,6 hPa 0,0 l/m 6,8 km/h N 5,3 C 12,7 C 23,3 km/h
15.09.2017 06:00 12,8 C 60 % 1015,3 hPa 0,0 l/m 4,8 km/h N 5,3 C 12,3 C 18,5 km/h
15.09.2017 07:00 12,4 C 62 % 1015,9 hPa 0,0 l/m 2,4 km/h N 5,4 C 12,4 C 17,7 km/h
15.09.2017 08:00 13,5 C 60 % 1016,3 hPa 0,0 l/m 2,4 km/h N 5,9 C 13,5 C 19,3 km/h
15.09.2017 09:00 15,3 C 57 % 1016,3 hPa 0,0 l/m 4,0 km/h N 6,8 C 15,3 C 24,1 km/h
15.09.2017 10:00 17,5 C 53 % 1016,8 hPa 0,0 l/m 1,6 km/h N 7,6 C 17,5 C 23,3 km/h
15.09.2017 11:00 18,7 C 50 % 1016,2 hPa 0,0 l/m 2,4 km/h N 8,0 C 18,7 C 13,7 km/h
15.09.2017 12:00 20,2 C 43 % 1015,5 hPa 0,0 l/m 0,8 km/h N 7,2 C 20,2 C 10,5 km/h
15.09.2017 13:00 20,5 C 42 % 1014,8 hPa 0,0 l/m 0,8 km/h N 7,1 C 20,5 C 4,8 km/h
15.09.2017 14:00 21,5 C 40 % 1014,2 hPa 0,0 l/m 1,6 km/h N 7,2 C 21,5 C 8,9 km/h
15.09.2017 15:00 20,5 C 42 % 1013,4 hPa 0,0 l/m 2,4 km/h N 6,9 C 20,5 C 12,9 km/h
15.09.2017 16:00 19,0 C 46 % 1013,2 hPa 0,0 l/m 3,2 km/h N 7,1 C 19,0 C 14,5 km/h
15.09.2017 17:00 18,0 C 50 % 1012,7 hPa 0,0 l/m 4,8 km/h N 7,3 C 18,0 C 19,3 km/h
15.09.2017 18:00 16,6 C 54 % 1012,5 hPa 0,0 l/m 4,8 km/h N 7,2 C 16,6 C 27,4 km/h
15.09.2017 19:00 15,6 C 59 % 1012,4 hPa 0,0 l/m 2,4 km/h N 7,4 C 15,6 C 9,6 km/h
15.09.2017 20:00 15,0 C 61 % 1012,8 hPa 0,0 l/m 1,6 km/h N 7,5 C 15,0 C 13,7 km/h
15.09.2017 21:00 14,8 C 63 % 1012,7 hPa 0,0 l/m 0,7 km/h N 7,9 C 14,8 C 6,8 km/h
15.09.2017 22:00 14,4 C 65 % 1012,3 hPa 0,0 l/m 0,1 km/h N 8,0 C 14,4 C 2,8 km/h
15.09.2017 23:00 14,0 C 67 % 1012,0 hPa 0,0 l/m 0,0 km/h N 8,0 C 14,0 C 0,8 km/h
16.09.2017 00:00 13,0 C 72 % 1012,0 hPa 0,0 l/m 0,0 km/h N 8,1 C 13,0 C 0,0 km/h
16.09.2017 01:00 12,3 C 77 % 1012,2 hPa 0,0 l/m 0,0 km/h N 8,2 C 12,3 C 0,4 km/h
16.09.2017 02:00 12,1 C 79 % 1011,8 hPa 0,3 l/m 0,0 km/h N 8,4 C 12,1 C 0,0 km/h
16.09.2017 03:00 12,1 C 81 % 1011,2 hPa 1,0 l/m 0,1 km/h N 9,0 C 12,1 C 2,8 km/h
16.09.2017 04:00 12,1 C 82 % 1011,1 hPa 0,3 l/m 0,0 km/h N 9,1 C 12,1 C 0,8 km/h
16.09.2017 05:00 12,1 C 82 % 1011,1 hPa 1,3 l/m 0,0 km/h N 9,1 C 12,1 C 1,2 km/h
16.09.2017 06:00 12,0 C 82 % 1010,8 hPa 3,4 l/m 0,2 km/h N 9,1 C 12,0 C 3,2 km/h
16.09.2017 07:00 11,9 C 83 % 1010,7 hPa 0,8 l/m 0,3 km/h N 9,1 C 11,9 C 4,4 km/h
16.09.2017 08:00 12,0 C 83 % 1010,8 hPa 0,0 l/m 0,3 km/h N 9,2 C 12,0 C 5,6 km/h
16.09.2017 09:00 12,2 C 83 % 1011,1 hPa 0,0 l/m 0,3 km/h N 9,3 C 12,2 C 3,2 km/h
16.09.2017 10:00 12,4 C 83 % 1011,0 hPa 0,0 l/m 0,8 km/h N 9,6 C 12,4 C 6,8 km/h
16.09.2017 11:00 12,7 C 83 % 1010,7 hPa 0,0 l/m 0,6 km/h N 9,9 C 12,7 C 6,4 km/h
16.09.2017 12:00 13,5 C 83 % 1010,1 hPa 0,0 l/m 0,6 km/h N 10,7 C 13,5 C 6,8 km/h
16.09.2017 13:00 14,3 C 83 % 1009,8 hPa 0,0 l/m 0,5 km/h N 11,4 C 14,3 C 6,8 km/h
16.09.2017 14:00 15,2 C 82 % 1009,5 hPa 0,0 l/m 0,4 km/h N 12,2 C 15,2 C 6,9 km/h
16.09.2017 15:00 16,0 C 82 % 1009,4 hPa 0,0 l/m 0,1 km/h N 12,9 C 16,0 C 2,8 km/h
16.09.2017 16:00 16,1 C 81 % 1009,9 hPa 0,0 l/m 2,9 km/h N 12,8 C 16,1 C 11,3 km/h
16.09.2017 17:00 15,3 C 81 % 1010,3 hPa 0,0 l/m 4,1 km/h N 11,9 C 15,1 C 15,3 km/h
16.09.2017 18:00 14,0 C 81 % 1011,1 hPa 0,0 l/m 3,6 km/h N 10,8 C 14,0 C 15,3 km/h
16.09.2017 19:00 14,0 C 78 % 1011,2 hPa 0,0 l/m 2,7 km/h N 10,2 C 14,0 C 14,9 km/h
16.09.2017 20:00 13,8 C 78 % 1012,0 hPa 0,0 l/m 2,2 km/h N 10,0 C 13,8 C 12,5 km/h
16.09.2017 21:00 13,7 C 78 % 1012,3 hPa 0,0 l/m 2,3 km/h N 9,9 C 13,7 C 10,1 km/h
16.09.2017 22:00 13,6 C 79 % 1012,5 hPa 0,0 l/m 3,2 km/h N 10,0 C 13,6 C 14,5 km/h
16.09.2017 23:00 13,4 C 78 % 1012,4 hPa 0,0 l/m 3,7 km/h N 9,7 C 13,4 C 11,7 km/h
17.09.2017 00:00 13,3 C 79 % 1012,5 hPa 0,0 l/m 3,2 km/h N 9,6 C 13,3 C 12,5 km/h
17.09.2017 01:00 13,0 C 80 % 1011,9 hPa 0,0 l/m 3,8 km/h N 9,6 C 13,0 C 13,7 km/h
17.09.2017 02:00 12,9 C 80 % 1012,1 hPa 0,0 l/m 2,0 km/h N 9,5 C 12,9 C 10,1 km/h
17.09.2017 03:00 12,7 C 81 % 1011,9 hPa 0,0 l/m 2,0 km/h N 9,5 C 12,7 C 8,4 km/h
17.09.2017 04:00 12,4 C 81 % 1012,0 hPa 0,3 l/m 2,8 km/h N 9,1 C 12,4 C 10,1 km/h
17.09.2017 05:00 12,0 C 82 % 1011,8 hPa 0,0 l/m 0,1 km/h N 8,9 C 12,0 C 1,2 km/h
17.09.2017 06:00 11,9 C 82 % 1011,6 hPa 0,0 l/m 0,1 km/h N 8,9 C 11,9 C 2,0 km/h
17.09.2017 07:00 11,9 C 82 % 1011,4 hPa 0,3 l/m 0,4 km/h N 8,9 C 11,9 C 4,0 km/h
17.09.2017 08:00 12,0 C 82 % 1011,5 hPa 0,8 l/m 0,3 km/h N 9,0 C 12,0 C 5,2 km/h
17.09.2017 09:00 11,9 C 82 % 1011,7 hPa 1,6 l/m 1,5 km/h N 8,9 C 11,9 C 7,2 km/h
17.09.2017 10:00 11,6 C 82 % 1011,1 hPa 1,3 l/m 2,6 km/h N 8,6 C 11,6 C 10,1 km/h
17.09.2017 11:00 11,3 C 82 % 1011,0 hPa 2,6 l/m 2,3 km/h N 8,4 C 11,3 C 9,3 km/h
17.09.2017 12:00 11,5 C 83 % 1010,6 hPa 1,6 l/m 4,7 km/h N 8,7 C 11,5 C 15,7 km/h
17.09.2017 13:00 11,6 C 83 % 1010,0 hPa 1,3 l/m 5,7 km/h N 8,8 C 11,6 C 17,3 km/h
17.09.2017 14:00 11,5 C 83 % 1010,4 hPa 1,6 l/m 7,5 km/h N 8,7 C 10,8 C 21,7 km/h
17.09.2017 15:00 11,6 C 82 % 1010,5 hPa 1,8 l/m 7,6 km/h N 8,7 C 10,7 C 20,1 km/h
17.09.2017 16:00 11,8 C 83 % 1010,5 hPa 0,8 l/m 5,1 km/h N 8,9 C 11,8 C 18,1 km/h
17.09.2017 17:00 12,3 C 82 % 1010,5 hPa 0,3 l/m 4,6 km/h N 9,3 C 12,3 C 15,7 km/h
17.09.2017 18:00 12,5 C 82 % 1010,9 hPa 0,0 l/m 3,1 km/h N 9,5 C 12,5 C 12,5 km/h
17.09.2017 19:00 12,2 C 82 % 1011,9 hPa 0,0 l/m 3,4 km/h N 9,2 C 12,2 C 12,5 km/h
17.09.2017 20:00 12,1 C 81 % 1012,7 hPa 0,3 l/m 3,7 km/h N 8,9 C 12,1 C 16,1 km/h
17.09.2017 21:00 12,2 C 81 % 1013,2 hPa 0,0 l/m 2,8 km/h N 9,0 C 12,2 C 16,9 km/h
17.09.2017 22:00 11,6 C 81 % 1013,7 hPa 0,0 l/m 1,0 km/h N 8,4 C 11,6 C 6,9 km/h
17.09.2017 23:00 11,1 C 80 % 1013,8 hPa 0,0 l/m 0,1 km/h N 7,8 C 11,1 C 3,2 km/h
Min-Datum _ 14.09.17 13.09.17 14.09.17 - 11.09.17 - 15.09.17 14.09.17 11.09.17
_ Min-Zeit 05:15 14:00 14:30 - 01:30 - 05:30 19:30 01:30
Minimum _ 10,6 C 38 % 1001,8 hPa - 0,0 km/h - 5,2 C 7,1 C 0,0 km/h
Max-Datum _ 14.09.17 11.09.17 15.09.17 16.09.17 14.09.17 - 14.09.17 14.09.17 14.09.17
_ Max-Zeit 16:00 07:15 10:00 06:30 19:30 - 16:15 16:00 17:15
Maximum _ 25,5 C 83 % 1016,8 hPa 3,4 l/m 23,9 km/h
N
- 14,3 C 25,5 C 61,2 km/h
N
Durchschnitt _ 15,1 C 70 % 1009,8 hPa #25,5 l/m 3,6 km/h N 9,5 C 14,7 C 13,6 km/h